NCAR-RAP Real-Time Weather Data

Output produced by METARs form (21 May 2019  11:27 UTC)
found at http://weather.rap.ucar.edu/surface/
 
RJSS 211100Z VRB01KT 7000 FEW005 BKN030 14/14 Q1004
RJSS 211000Z 13007KT 5000 BR FEW001 BKN010 BKN040 15/14 Q1002
RJSS 210916Z 09003KT 040V120 3000 R27/P2000N -DZ PRFG BR FEW001 BKN008 16/15 Q1002 RMK 1ST001 7ST008 A2960 1000E-SE SEA FG APCH STN
RJSS 210900Z 12003KT 100V160 7000 R27/P2000N -DZ PRFG BR FEW001 BKN008 16/15 Q1002
RJSS 210830Z 20006KT 9999 R27/P2000N -DZ PRFG FEW001 BKN005 17/16 Q1002 RMK 1ST001 7ST005 A2959 1500E-SE SEA FG ALONG COASTLINE
RJSS 210810Z 17007KT 1500 R27/2000N -DZ BCFG BR FEW001 BKN003 18/17 Q1001 RMK 1ST001 7ST003 A2958 9999W SEA FG APCH STN
RJSS 210800Z 12004KT 050V160 2000 R27/2000N BCFG BR BKN003 BKN050 19/17 Q1001
RJSS 210700Z 31004KT 270V340 9999 FEW008 SCT012 BKN050 19/17 Q1001
RJSS 210600Z 30004KT 5000 -SHRA BR FEW001 SCT010 BKN020 17/17 Q1001
RJSS 210517Z 18004KT 140V270 1500 R27/P2000N -SHRA BR FEW001 BKN003 16/16 Q1001 RMK 1ST001 7ST003 A2957
RJSS 210500Z 16006KT 2000 SHRA BR FEW001 BKN003 16/16 Q1001
RJSS 210449Z 18005KT 150V220 2000 SHRA BR FEW001 BKN003 16/15 Q1001 RMK 1ST001 7ST003 A2957
RJSS 210438Z 17006KT 2000 -SHRA BR FEW001 BKN003 16/15 Q1001 RMK 1ST001 7ST003 A2958
RJSS 210400Z 13008KT 3000 -SHRA BR FEW004 SCT010 BKN030 16/15 Q1001
RJSS 210336Z 14010KT 3000 -SHRA BR FEW005 BKN040 16/15 Q1001 RMK 1ST005 7CU040 A2959
RJSS 210300Z 15010KT 2000 SHRA BR FEW002 SCT004 BKN006 15/15 Q1002
RJSS 210224Z 15012KT 2000 SHRA BR FEW001 BKN003 15/15 Q1003 RMK 1ST001 7ST003 A2962
RJSS 210200Z 14012KT 1500 R27/P2000N SHRA BR FEW001 BKN002 15/14 Q1003
RJSS 210133Z 15013KT 1500 R27/P2000N -SHRA BR FEW001 BKN002 15/14 Q1003 RMK 1ST001 7ST002 A2963
RJSS 210100Z 15012KT 1200 R27/P2000N SHRA BR FEW001 BKN002 14/14 Q1003
RJSS 210000Z 16012KT 1500 R27/P2000N SHRA BR FEW001 BKN002 14/14 Q1004
RJSS 202334Z 15016KT 1500 R27/P2000N SHRA BR FEW001 BKN002 15/14 Q1004 RMK 1ST001 7ST002 A2965
RJSS 202314Z 15014KT 1500 R27/P2000N -SHRA BR FEW001 BKN002 14/14 Q1004 RMK 1ST001 7ST002 A2966
RJSS 202300Z 15013KT 2000 SHRA BR FEW001 BKN002 14/14 Q1004
RJSS 202242Z 15015KT 2000 SHRA BR FEW001 BKN002 14/14 Q1004 RMK 1ST001 7ST002 A2967
RJSS 202220Z 16014KT 2000 -SHRA BR FEW001 BKN002 14/14 Q1005 RMK 1ST001 7ST002 A2968
RJSS 202209Z 15013KT 2000 SHRA BR FEW001 BKN002 14/14 Q1005 RMK 1ST001 7ST002 A2968
RJSS 202200Z 15014KT 2000 -SHRA BR FEW001 BKN002 14/14 Q1005
RJSS 202141Z 15012KT 2000 -SHRA BR FEW001 BKN002 14/14 Q1005 RMK 1ST001 7ST002 A2969
RJSS 202123Z 15016KT 2000 SHRA BR FEW001 BKN002 BKN050 14/14 Q1005 RMK 1ST001 5ST002 7CU050 A2969
RJSS 202107Z 14012KT 2000 SHRA BR FEW001 SCT007 BKN050 14/14 Q1005 RMK 1ST001 4ST007 7CU050 A2970
RJSS 202100Z 14010KT 2000 -SHRA BR FEW001 SCT002 BKN007 14/13 Q1005
RJSS 202049Z 15013KT 2500 -SHRA BR FEW001 BKN002 BKN050 14/13 Q1006 RMK 1ST001 5ST002 7CU050 A2971
RJSS 202030Z 15012KT 2500 -SHRA BR FEW002 SCT040 BKN050 14/13 Q1006 RMK 1ST002 3CU040 6CU050 A2971
RJSS 201200Z 16016KT 9000 FEW010 BKN070 BKN/// 15/14 Q1012
RJSS 201100Z 15018KT 9000 FEW015 SCT070 BKN/// 15/13 Q1012
RJSS 201000Z 15020KT 9000 FEW010 SCT070 BKN/// 15/13 Q1012
RJSS 200917Z 15018G28KT 9999 FEW010 SCT070 BKN/// 15/13 Q1012 RMK 1ST010 3AC070 A2990
RJSS 200900Z 15022KT 9999 FEW010 BKN/// 15/13 Q1012
RJSS 200800Z 15024G35KT 9999 FEW015 BKN/// 16/13 Q1011
RJSS 200724Z 15025G35KT 9999 FEW015 BKN/// 17/13 Q1011 RMK 1CU015 A2988
RJSS 200700Z 15026KT 9999 FEW015 BKN/// 17/13 Q1012
RJSS 200606Z 15024G34KT 9999 FEW020 SCT/// 18/14 Q1012 RMK 1CU020 A2988
RJSS 200600Z 15027KT 9999 FEW020 SCT/// 18/14 Q1012
RJSS 200515Z 15025G35KT 9999 FEW015 SCT/// 19/13 Q1012 RMK 1CU015 A2990
RJSS 200500Z 15025KT 9999 FEW015 SCT070 18/12 Q1012
RJSS 200414Z 15024G34KT 9999 FEW025 SCT050 BKN/// 19/14 Q1013 RMK 1SC025 3SC050 A2993
RJSS 200400Z 15024KT 9999 FEW025 SCT050 BKN/// 20/14 Q1013
RJSS 200300Z 15023G33KT 9999 FEW020 SCT050 BKN/// 19/14 Q1014
RJSS 200239Z 15020G30KT 9999 FEW020 SCT050 BKN/// 20/14 Q1014 RMK 1SC020 4SC050 A2997
RJSS 200200Z 15019KT 9999 FEW020 BKN050 19/13 Q1015
RJSS 200100Z 15018KT 9999 FEW015 SCT040 19/14 Q1015
RJSS 200000Z 15018KT 9999 FEW015 BKN050 17/13 Q1016
RJSS 192300Z 15015KT 9999 FEW015 SCT040 BKN050 16/13 Q1017
RJSS 192200Z 16014KT 9999 FEW015 SCT050 16/13 Q1017
RJSS 192100Z 17012KT 9999 FEW015 SCT035 BKN040 15/13 Q1018
RJSS 192030Z 16014KT 9999 FEW020 SCT030 BKN040 15/13 Q1018 RMK 1SC020 4SC030 7SC040 A3008
RJSS 191200Z 16016KT 9999 FEW040 16/13 Q1020
RJSS 191100Z 16018KT 9999 FEW040 16/13 Q1020
RJSS 191000Z 16020KT 9999 FEW040 16/14 Q1020
RJSS 190926Z 16019G29KT 9999 FEW020 17/14 Q1020 RMK 1CU020 A3012
RJSS 190900Z 15019KT 9999 FEW020 17/14 Q1019
RJSS 190800Z 15019KT 9999 FEW020 18/14 Q1020
RJSS 190700Z 15020KT 9999 FEW020 19/13 Q1020
RJSS 190600Z 15018KT 9999 FEW020 SCT160 BKN/// 19/14 Q1020
RJSS 190500Z 15020KT 9999 FEW020 SCT170 BKN/// 20/14 Q1020
RJSS 190400Z 15019KT 9999 FEW020 SCT/// 20/14 Q1021
RJSS 190300Z 15018KT 9999 FEW020 SCT050 BKN160 20/13 Q1021
RJSS 190200Z 15017KT 9999 FEW020 SCT040 BKN160 20/14 Q1022
RJSS 190100Z 15015KT 9999 FEW020 BKN160 BKN/// 20/14 Q1022
RJSS 190000Z 15012KT 9999 FEW020 SCT180 BKN/// 18/13 Q1022